Reynosa, México

10:58 AM CST en Enero 30, 2015 (GMT -0600)
McAllen Miller International | Change Station
CLOSE
Current Station
Aeropuerto
Location: McAllen,
Altura: 105 ft
Estaciones meteorológicas cercanas

Alt 105 ft 26.18 °N, 98.24 °W | Updated 5 minutes ago

Nublado
Nublado
65 ° F
Sensación térmica 65 ° F
N
13
Viento Variable Viento desde NE

Hoy
Alta -- | Baja -- ° F
--% Posibilidad de precipitaciones
Ayer
Alta -- | Baja -- ° F
Precip. -- pul
7:17 AM 6:14 PM
Gibosa creciente, 84% visible
Presión 30.32 pul
Visibilidad 10.0 Millas
Nubes Nublado 800 ft
Punto de rocío 60 ° F
Humedad 84%
Precipitaciones 0.00 pul
Espesor de la nieve No disponible.
UV 1 de una escala de 12
Polen No disponible.
Calidad del aire No disponible.
Flu Activity No disponible.
METAR KMFE 301653Z 04011KT 10SM OVC008 18/16 A3033 RMK AO2 SLP268 T01830156

More Conditions Fewer Conditions

Presión 30.32 pul
Visibilidad 10.0 Millas
Nubes Nublado 800 ft
Punto de rocío 60 ° F
Humedad 84%
Precipitaciones 0.00 pul
Espesor de la nieve No disponible.
UV 1 de una escala de 12
Polen No disponible.
Calidad del aire No disponible.
Flu Activity No disponible.
METAR KMFE 301653Z 04011KT 10SM OVC008 18/16 A3033 RMK AO2 SLP268 T01830156

More Conditions Fewer Conditions

10-Day Weather Forecast

Almanac

Astronomía

Jan. 30, 2015 Salida Puesta
Hora real
Crepúsculo civil
Crepúsculo náutico
Crepúsculo astronómico
Luna
Horas de luz
Horas de luz
Tomorrow will be .
, % of the Moon is Illuminated

Extremos de hoy

Máximos del país Bajas del país

Community

WunderPhotos

Upload Photos

1,791,809 ¡fotos cargadas!

WunderBlogs® & News

Nearby

Calidad del aire

  Calidad del aire Índice AQ Contaminante
Not available.

Grosos de nieve

Estación Profundido Altura

Actividad de terremotos

Ciudad Distance Mag. Tiempo y dato
Magnitud mínima muestra es 2,5.

Temperaturas de aguas costeras

Lugar Temperatura

Estaciones meteorológicas cercanas